Time;durP1;ratioP1;P1;durP2;ratioP2;P2;SDS_P1;SDS_P2;PMS_P1;PMS_P2;Temp;Humidity;BMP_temperature;BMP_pressure;BME280_temperature;BME280_humidity;BME280_pressure;Samples;Min_cycle;Max_cycle;Signal;HPM_P1;HPM_P2
2021/03/19 06:32:28;;;;;;;51.85;25.88;;;;;;;-0.35;78.35;100329.78;1708547;78;26697;-67
2021/03/19 06:35:07;;;;;;;49.98;26.12;;;;;;;-0.27;78.29;100338.72;1690304;83;25256;-66
2021/03/19 06:37:39;;;;;;;49.80;26.23;;;;;;;-0.19;78.37;100334.34;1761442;81;25959;-67
2021/03/19 06:40:27;;;;;;;46.95;23.45;;;;;;;-0.10;78.41;100333.44;1760862;80;25327;-67
2021/03/19 06:43:13;;;;;;;36.77;19.67;;;;;;;0.01;78.31;100333.92;1760919;80;25392;-67
2021/03/19 06:45:41;;;;;;;30.72;17.82;;;;;;;0.13;78.19;100343.19;1760893;81;25258;-67
2021/03/19 06:48:31;;;;;;;31.20;18.17;;;;;;;0.23;78.10;100344.70;1760961;80;25092;-66
2021/03/19 06:50:59;;;;;;;40.50;19.60;;;;;;;0.28;77.83;100334.69;1761031;80;25686;-66
2021/03/19 06:53:32;;;;;;;31.45;18.02;;;;;;;0.37;78.00;100343.88;1764839;80;25084;-68
2021/03/19 06:56:24;;;;;;;32.67;18.40;;;;;;;0.47;77.92;100342.72;1763475;81;25347;-67
2021/03/19 06:58:50;;;;;;;32.65;17.15;;;;;;;0.58;77.71;100341.05;1776403;80;25076;-67
2021/03/19 07:01:31;;;;;;;29.50;16.48;;;;;;;0.66;77.59;100347.81;1763426;81;25306;-68
2021/03/19 07:04:45;;;;;;;34.75;17.25;;;;;;;0.72;77.26;100340.20;1776404;80;25698;-67
2021/03/19 07:07:52;;;;;;;33.00;18.48;;;;;;;0.81;77.20;100340.61;1705226;81;25320;-68
2021/03/19 07:10:47;;;;;;;30.97;17.85;;;;;;;0.98;77.22;100341.93;1710101;83;25601;-68
2021/03/19 07:13:34;;;;;;;33.78;18.12;;;;;;;1.28;77.63;100337.03;1690181;84;25427;-68
2021/03/19 07:16:29;;;;;;;29.85;17.57;;;;;;;1.62;76.92;100343.60;1849477;76;34928;-66
2021/03/19 07:19:27;;;;;;;32.03;18.15;;;;;;;1.63;76.21;100339.06;1816627;77;25606;-67
2021/03/19 07:22:16;;;;;;;29.30;16.62;;;;;;;1.74;76.39;100338.14;1801530;77;25923;-69
2021/03/19 07:25:31;;;;;;;30.10;17.13;;;;;;;1.91;76.04;100336.73;1816169;77;25472;-68
2021/03/19 07:28:15;;;;;;;28.38;16.40;;;;;;;2.10;75.67;100343.08;1817013;79;25496;-68
2021/03/19 07:31:08;;;;;;;24.85;13.80;;;;;;;2.34;75.36;100348.91;1817168;79;25511;-68
2021/03/19 07:33:57;;;;;;;24.47;14.15;;;;;;;2.51;75.26;100348.80;1787106;80;25504;-68
2021/03/19 07:36:29;;;;;;;27.20;15.32;;;;;;;2.69;74.76;100352.44;1787148;80;26148;-68
2021/03/19 07:39:27;;;;;;;26.27;14.20;;;;;;;2.98;75.02;100354.80;1783371;80;25486;-68
2021/03/19 07:42:21;;;;;;;26.90;15.55;;;;;;;3.26;74.76;100353.62;1787063;80;25560;-68
2021/03/19 07:45:34;;;;;;;26.15;14.95;;;;;;;3.40;74.15;100351.29;1785831;80;25678;-68
2021/03/19 07:48:27;;;;;;;23.77;14.13;;;;;;;3.50;73.68;100350.55;1803350;78;25156;-68
2021/03/19 07:51:23;;;;;;;25.20;14.40;;;;;;;3.55;72.99;100349.23;1714099;83;26217;-68
2021/03/19 07:54:16;;;;;;;21.55;13.28;;;;;;;3.55;72.58;100347.34;1711558;82;25699;-68
2021/03/19 07:56:50;;;;;;;22.32;12.55;;;;;;;3.60;72.31;100345.24;1707860;84;25709;-67
2021/03/19 07:59:22;;;;;;;23.40;13.00;;;;;;;3.61;72.11;100341.52;1707722;84;25636;-67
2021/03/19 08:01:56;;;;;;;22.17;13.28;;;;;;;3.66;71.76;100351.41;1708332;84;25740;-68
2021/03/19 08:05:03;;;;;;;19.67;12.55;;;;;;;4.06;71.89;100345.94;1708025;84;26917;-67
2021/03/19 08:07:40;;;;;;;19.55;11.33;;;;;;;4.56;72.01;100349.75;1708164;83;25629;-67
2021/03/19 08:10:30;;;;;;;19.52;12.13;;;;;;;4.76;70.73;100346.28;1708145;84;25588;-67
2021/03/19 08:13:41;;;;;;;17.48;11.83;;;;;;;4.88;70.05;100341.98;1708091;84;25591;-67
2021/03/19 08:16:51;;;;;;;19.62;11.43;;;;;;;4.92;69.79;100350.28;1708064;83;25442;-67
2021/03/19 08:19:43;;;;;;;18.90;10.75;;;;;;;4.73;68.52;100346.80;1713534;82;30030;-67
2021/03/19 08:23:01;;;;;;;15.88;9.95;;;;;;;4.71;68.38;100347.62;1716841;83;25737;-68
2021/03/19 08:25:42;;;;;;;15.63;10.23;;;;;;;5.06;68.86;100348.68;1781100;79;25513;-67
2021/03/19 08:28:32;;;;;;;17.02;10.70;;;;;;;5.29;68.13;100347.28;1816471;78;25527;-67
2021/03/19 08:31:07;;;;;;;16.70;10.38;;;;;;;5.38;67.67;100355.05;1816725;79;25340;-68
2021/03/19 08:34:11;;;;;;;15.65;9.25;;;;;;;5.42;67.34;100352.63;1816732;79;25769;-68
2021/03/19 08:36:43;;;;;;;12.20;8.70;;;;;;;5.51;66.89;100344.81;1816505;79;25516;-67
2021/03/19 08:39:37;;;;;;;14.43;9.20;;;;;;;5.73;66.47;100349.83;1816755;78;25569;-68
2021/03/19 08:42:11;;;;;;;12.88;8.88;;;;;;;5.63;65.40;100345.84;1816711;79;25570;-67
2021/03/19 08:44:40;;;;;;;13.55;8.38;;;;;;;5.50;65.10;100339.16;1787226;79;25512;-68
2021/03/19 08:47:27;;;;;;;14.93;9.38;;;;;;;5.42;64.93;100341.89;1816650;78;26031;-67
2021/03/19 08:49:57;;;;;;;16.77;9.93;;;;;;;5.40;65.16;100346.19;1780666;80;25569;-67
2021/03/19 08:52:35;;;;;;;15.70;10.55;;;;;;;5.32;64.32;100341.92;1780951;80;25534;-67
2021/03/19 08:55:21;;;;;;;16.73;8.60;;;;;;;5.27;64.57;100345.41;1780932;80;25604;-65
2021/03/19 08:57:52;;;;;;;13.08;8.78;;;;;;;5.31;64.48;100346.49;1780884;80;25611;-66
2021/03/19 09:00:34;;;;;;;17.25;10.43;;;;;;;5.60;64.95;100343.16;1780972;80;25766;-65
2021/03/19 09:03:06;;;;;;;16.75;9.58;;;;;;;6.23;65.15;100343.15;1780877;80;25549;-66
2021/03/19 09:06:09;;;;;;;11.80;8.33;;;;;;;6.29;63.52;100339.36;1780861;80;25553;-66
2021/03/19 09:08:59;;;;;;;13.68;8.83;;;;;;;6.13;62.49;100334.61;1780822;80;25285;-66
2021/03/19 09:11:39;;;;;;;14.43;8.75;;;;;;;7.22;64.29;100342.05;1849350;76;34797;-66
2021/03/19 09:14:11;;;;;;;6.72;4.67;;;;;;;7.62;63.08;100341.36;1809471;78;25472;-64
2021/03/19 09:16:55;;;;;;;7.65;5.30;;;;;;;7.67;61.29;100343.98;1819426;78;25960;-64
2021/03/19 09:19:54;;;;;;;9.40;6.85;;;;;;;7.48;60.30;100337.22;1818755;78;25469;-66
2021/03/19 09:22:26;;;;;;;10.43;6.90;;;;;;;7.50;60.29;100339.08;1819651;78;25420;-65
2021/03/19 09:25:16;;;;;;;11.80;7.08;;;;;;;8.36;60.43;100326.89;1819271;78;25496;-64
2021/03/19 09:27:48;;;;;;;9.00;6.97;;;;;;;9.10;58.61;100329.47;1819554;78;25557;-65
2021/03/19 09:30:25;;;;;;;15.00;9.08;;;;;;;9.51;57.52;100324.64;1819347;78;25890;-64
2021/03/19 09:32:55;;;;;;;15.53;8.50;;;;;;;9.38;56.95;100329.48;1819400;78;25490;-65
2021/03/19 09:35:44;;;;;;;10.93;7.58;;;;;;;9.14;56.73;100333.98;1819080;78;35143;-65
2021/03/19 09:38:30;;;;;;;14.33;9.70;;;;;;;9.39;56.18;100335.94;1848990;76;34715;-65
2021/03/19 09:41:02;;;;;;;13.98;9.18;;;;;;;9.41;55.36;100331.59;1818931;78;25552;-65
2021/03/19 09:43:49;;;;;;;13.55;8.30;;;;;;;9.68;55.53;100332.92;1819331;78;25686;-65
2021/03/19 09:46:30;;;;;;;13.32;9.18;;;;;;;9.48;53.17;100331.45;1819237;78;25560;-66
2021/03/19 09:49:04;;;;;;;10.93;7.78;;;;;;;8.93;53.34;100335.44;1819163;78;25394;-69
2021/03/19 09:51:46;;;;;;;11.97;7.20;;;;;;;8.72;53.46;100330.39;1819584;78;25297;-63
2021/03/19 09:54:34;;;;;;;9.10;6.25;;;;;;;8.68;53.77;100336.11;1813239;77;25218;-63
2021/03/19 09:57:16;;;;;;;9.03;6.53;;;;;;;8.59;52.22;100330.59;1818104;78;26663;-66
2021/03/19 09:59:45;;;;;;;8.18;6.83;;;;;;;8.32;52.32;100333.15;1801893;78;25556;-64
2021/03/19 10:02:33;;;;;;;14.25;7.58;;;;;;;7.79;52.58;100331.45;1818684;78;26124;-64
2021/03/19 10:05:14;;;;;;;10.45;8.13;;;;;;;7.79;52.58;100331.45;1818551;78;25543;-64
2021/03/19 10:07:53;;;;;;;13.55;8.70;;;;;;;7.56;53.17;100340.62;1729459;82;25763;-64
2021/03/19 10:10:37;;;;;;;18.25;10.95;;;;;;;7.41;53.43;100337.56;1726267;82;25970;-64
2021/03/19 10:13:11;;;;;;;14.87;9.45;;;;;;;7.21;53.25;100337.78;1719649;82;25661;-63
2021/03/19 10:15:38;;;;;;;18.15;10.35;;;;;;;6.94;53.51;100341.00;1717348;83;25732;-65
2021/03/19 10:18:08;;;;;;;15.28;9.25;;;;;;;6.68;53.37;100338.54;1728319;82;26235;-65
2021/03/19 10:20:42;;;;;;;14.53;9.03;;;;;;;6.40;53.68;100344.11;1724844;82;25628;-65
2021/03/19 10:23:18;;;;;;;16.07;9.55;;;;;;;6.11;54.20;100347.00;1714037;82;25704;-64
2021/03/19 10:25:47;;;;;;;12.75;8.60;;;;;;;5.90;54.69;100350.28;1724242;82;25559;-65
2021/03/19 10:28:24;;;;;;;14.50;8.53;;;;;;;5.67;54.50;100346.38;1723315;82;25852;-64
2021/03/19 10:30:55;;;;;;;14.00;9.53;;;;;;;5.49;54.88;100353.13;1731758;82;25588;-64
2021/03/19 10:33:52;;;;;;;21.62;13.00;;;;;;;5.33;55.37;100344.84;1722340;82;25610;-63
2021/03/19 10:36:47;;;;;;;18.70;11.12;;;;;;;5.24;56.16;100350.80;1733848;82;26196;-64
2021/03/19 10:39:31;;;;;;;20.27;12.35;;;;;;;5.12;56.46;100348.13;1710792;82;25564;-65
2021/03/19 10:42:17;;;;;;;16.97;10.40;;;;;;;5.03;56.75;100348.67;1709790;83;25503;-66
2021/03/19 10:44:52;;;;;;;16.45;10.00;;;;;;;4.94;56.89;100345.45;1762272;78;25441;-64
2021/03/19 10:47:32;;;;;;;19.60;10.10;;;;;;;4.90;56.99;100346.53;1819237;78;25496;-65
2021/03/19 10:50:11;;;;;;;;;;;;;;;4.89;57.34;100346.80;1821514;78;25747;-65
2021/03/19 10:53:02;;;;;;;17.75;10.30;;;;;;;4.95;57.74;100343.84;1818828;78;25252;-65
2021/03/19 10:55:34;;;;;;;15.72;9.68;;;;;;;5.03;57.40;100340.62;1818709;78;25387;-63
2021/03/19 10:58:28;;;;;;;15.90;9.78;;;;;;;5.03;57.28;100343.85;1818570;78;25330;-64
2021/03/19 11:00:54;;;;;;;17.48;9.70;;;;;;;5.03;57.68;100345.19;1818214;78;25554;-64
2021/03/19 11:03:44;;;;;;;13.78;8.55;;;;;;;4.91;56.54;100344.67;1786933;78;25772;-65
2021/03/19 11:06:15;;;;;;;17.40;9.43;;;;;;;4.76;56.64;100344.94;1818514;78;25502;-64
2021/03/19 11:08:41;;;;;;;12.47;8.33;;;;;;;4.64;56.40;100349.22;1824467;77;25612;-64
2021/03/19 11:11:08;;;;;;;13.18;8.15;;;;;;;4.43;56.61;100339.04;1778155;80;25523;-64
2021/03/19 11:13:38;;;;;;;11.68;8.13;;;;;;;4.26;56.67;100343.84;1778310;80;25320;-64
2021/03/19 11:16:08;;;;;;;;;;;;;;;4.16;57.01;100345.16;1783000;79;25982;-67
2021/03/19 11:18:39;;;;;;;15.48;7.67;;;;;;;4.10;57.38;100338.47;1768269;81;25310;-66
2021/03/19 11:21:16;;;;;;;12.75;7.85;;;;;;;4.12;57.45;100338.20;1769439;81;25532;-67
2021/03/19 11:24:03;;;;;;;14.70;8.08;;;;;;;4.18;57.20;100334.98;1737213;81;25436;-67
2021/03/19 11:26:33;;;;;;;14.25;7.80;;;;;;;4.29;57.38;100336.08;1748422;79;26451;-66
2021/03/19 11:29:23;;;;;;;12.07;7.37;;;;;;;4.61;58.12;100335.56;1769072;81;25713;-67
2021/03/19 11:32:07;;;;;;;13.93;8.00;;;;;;;4.97;57.41;100336.88;1776849;79;25669;-67
2021/03/19 11:34:57;;;;;;;14.03;7.70;;;;;;;5.22;56.58;100338.17;1777692;80;25599;-67
2021/03/19 11:37:29;;;;;;;11.10;6.80;;;;;;;5.36;56.58;100337.61;1798835;79;25483;-68
2021/03/19 11:40:27;;;;;;;10.70;6.95;;;;;;;5.53;56.25;100337.28;1777815;80;25647;-69
2021/03/19 11:45:39;;;;;;;17.75;9.03;;;;;;;6.03;55.29;100336.83;1798908;78;34615;-68
2021/03/19 11:48:31;;;;;;;12.40;8.05;;;;;;;6.12;55.01;100335.16;1773591;79;25633;-68
2021/03/19 11:51:15;;;;;;;13.93;7.83;;;;;;;6.24;54.52;100328.66;1708126;84;25778;-69
2021/03/19 11:53:42;;;;;;;8.78;6.17;;;;;;;6.35;53.48;100324.80;1762556;81;25474;-68
2021/03/19 11:56:10;;;;;;;14.58;6.08;;;;;;;6.53;53.30;100323.33;1762493;81;25495;-67
2021/03/19 11:58:37;;;;;;;12.00;6.03;;;;;;;6.70;53.13;100322.92;1762488;81;25288;-67
2021/03/19 12:01:06;;;;;;;6.87;4.00;;;;;;;7.06;53.36;100323.38;1762548;81;25300;-67
2021/03/19 12:03:51;;;;;;;9.78;5.03;;;;;;;7.74;53.52;100320.75;1762434;81;25711;-67
2021/03/19 12:06:23;;;;;;;7.92;5.00;;;;;;;8.60;52.85;100321.42;1762375;81;25283;-67
2021/03/19 12:08:50;;;;;;;8.65;5.33;;;;;;;9.39;52.41;100318.95;1762432;81;25507;-67
2021/03/19 12:11:25;;;;;;;7.30;5.50;;;;;;;9.94;50.79;100318.87;1762488;81;25435;-67
2021/03/19 12:13:53;;;;;;;9.68;5.58;;;;;;;9.98;49.35;100320.44;1762552;81;25628;-66
2021/03/19 12:16:20;;;;;;;10.05;4.92;;;;;;;9.88;48.22;100330.91;1760489;81;25702;-67
2021/03/19 12:18:47;;;;;;;10.40;5.33;;;;;;;9.71;47.88;100326.13;1747531;81;25608;-67
2021/03/19 12:21:14;;;;;;;7.58;4.87;;;;;;;9.54;47.83;100326.19;1766847;80;25508;-68
2021/03/19 12:23:41;;;;;;;6.67;4.55;;;;;;;9.37;46.33;100323.86;1756125;80;25435;-66
2021/03/19 12:26:08;;;;;;;9.63;5.17;;;;;;;9.06;46.55;100321.70;1784097;80;25569;-67
2021/03/19 12:28:35;;;;;;;8.85;5.40;;;;;;;8.82;46.33;100319.98;1788530;80;26679;-68
2021/03/19 12:31:02;;;;;;;8.90;5.17;;;;;;;8.66;47.36;100324.03;1782120;80;25311;-68
2021/03/19 12:33:36;;;;;;;12.20;4.85;;;;;;;8.55;47.33;100317.45;1757237;81;25639;-67
2021/03/19 12:36:04;;;;;;;7.62;4.62;;;;;;;8.37;46.87;100316.34;1757293;81;25464;-68
2021/03/19 12:38:31;;;;;;;7.03;4.50;;;;;;;8.21;47.07;100323.08;1757326;81;25666;-68
2021/03/19 12:40:59;;;;;;;8.53;4.47;;;;;;;8.11;47.10;100318.63;1756869;81;26226;-67
2021/03/19 12:43:27;;;;;;;9.90;4.75;;;;;;;8.06;47.68;100315.22;1732929;81;25666;-66
2021/03/19 12:45:54;;;;;;;7.33;4.35;;;;;;;7.99;46.56;100312.33;1730446;82;25715;-66
2021/03/19 12:48:21;;;;;;;6.58;4.50;;;;;;;7.84;46.24;100320.62;1730495;81;25590;-66
2021/03/19 12:50:48;;;;;;;9.90;5.08;;;;;;;7.73;47.07;100314.58;1730534;82;25304;-66
2021/03/19 12:53:19;;;;;;;8.35;5.22;;;;;;;7.72;47.26;100313.52;1732817;81;25831;-65
2021/03/19 12:55:47;;;;;;;7.72;4.45;;;;;;;7.63;47.20;100310.67;1730164;82;25593;-66
2021/03/19 12:58:14;;;;;;;8.43;5.72;;;;;;;7.53;47.20;100312.94;1729953;83;25701;-67
2021/03/19 13:00:42;;;;;;;10.38;4.97;;;;;;;7.43;47.39;100320.58;1759426;81;25660;-66
2021/03/19 13:03:10;;;;;;;8.85;5.90;;;;;;;7.34;47.30;100318.80;1739310;81;25303;-66
2021/03/19 13:05:37;;;;;;;8.43;4.75;;;;;;;7.14;46.38;100316.59;1755879;81;25972;-66
2021/03/19 13:08:05;;;;;;;9.63;5.15;;;;;;;6.87;46.73;100316.58;1756663;81;25531;-66
2021/03/19 13:10:36;;;;;;;8.98;4.35;;;;;;;6.74;47.20;100321.27;1765257;79;25492;-67
2021/03/19 13:13:04;;;;;;;6.75;4.47;;;;;;;6.62;46.88;100318.94;1768324;79;25297;-66
2021/03/19 13:15:34;;;;;;;8.15;4.65;;;;;;;6.54;47.43;100310.95;1729952;83;25609;-67
2021/03/19 13:18:03;;;;;;;9.85;5.40;;;;;;;6.54;48.08;100306.13;1730307;81;25789;-66
2021/03/19 13:20:31;;;;;;;9.05;5.65;;;;;;;6.50;48.02;100309.93;1784759;79;25590;-67
2021/03/19 13:22:58;;;;;;;8.93;5.55;;;;;;;6.44;48.02;100304.87;1781785;79;25652;-67
2021/03/19 13:25:30;;;;;;;8.63;5.37;;;;;;;6.42;48.24;100302.46;1770080;81;25596;-66
2021/03/19 13:27:58;;;;;;;8.30;5.65;;;;;;;6.70;48.79;100301.42;1770196;80;25296;-66
2021/03/19 13:30:29;;;;;;;10.80;6.35;;;;;;;6.86;48.52;100298.86;1770202;81;25761;-67
2021/03/19 13:32:57;;;;;;;9.60;6.83;;;;;;;6.76;47.88;100299.48;1738213;82;25654;-66
2021/03/19 13:35:29;;;;;;;11.28;7.10;;;;;;;6.61;47.41;100295.06;1738280;82;25220;-66
2021/03/19 13:37:56;;;;;;;15.05;8.03;;;;;;;6.40;47.92;100291.17;1737977;82;25484;-66
2021/03/19 13:40:24;;;;;;;16.20;8.10;;;;;;;6.25;48.17;100298.00;1756606;81;25565;-67
2021/03/19 13:42:52;;;;;;;13.90;8.40;;;;;;;6.07;48.13;100293.56;1724893;82;26696;-67
2021/03/19 13:45:21;;;;;;;11.93;6.87;;;;;;;5.88;48.38;100293.93;1756471;81;25562;-66
2021/03/19 13:47:48;;;;;;;13.68;7.85;;;;;;;5.72;48.85;100296.70;1738575;81;25267;-66
2021/03/19 13:50:18;;;;;;;13.65;7.67;;;;;;;5.61;48.80;100299.95;1742690;82;25481;-66
2021/03/19 13:52:45;;;;;;;14.75;7.35;;;;;;;5.49;48.97;100302.16;1742962;81;26126;-66
2021/03/19 13:55:13;;;;;;;15.68;7.25;;;;;;;5.41;49.80;100304.88;1750958;82;26183;-66
2021/03/19 13:57:50;;;;;;;13.65;7.45;;;;;;;5.30;49.32;100297.94;1750833;82;25541;-66
2021/03/19 14:00:31;;;;;;;11.80;7.80;;;;;;;5.22;49.22;100304.65;1750982;82;25580;-66
2021/03/19 14:02:58;;;;;;;12.00;7.20;;;;;;;5.11;49.87;100300.92;1752829;80;25565;-66
2021/03/19 14:05:30;;;;;;;10.68;6.87;;;;;;;5.07;49.52;100303.34;1753378;81;25508;-66
2021/03/19 14:07:59;;;;;;;16.95;7.72;;;;;;;4.92;49.71;100301.52;1732218;82;25850;-66
2021/03/19 14:10:28;;;;;;;13.10;7.67;;;;;;;4.88;50.48;100305.00;1731788;82;25511;-66
2021/03/19 14:12:55;;;;;;;14.70;7.70;;;;;;;4.90;50.66;100306.88;1732688;82;25484;-66
2021/03/19 14:15:26;;;;;;;11.65;7.83;;;;;;;4.93;51.08;100296.95;1732734;82;25496;-66
2021/03/19 14:17:53;;;;;;;12.25;7.67;;;;;;;4.90;50.30;100307.67;1732908;82;25536;-66
2021/03/19 14:20:31;;;;;;;14.98;7.62;;;;;;;4.80;49.93;100300.47;1732800;82;26658;-66
2021/03/19 14:22:58;;;;;;;17.85;8.95;;;;;;;4.75;50.35;100310.36;1705444;82;25333;-66
2021/03/19 14:25:26;;;;;;;15.08;7.95;;;;;;;4.72;50.84;100296.98;1732814;82;25469;-67
2021/03/19 14:27:54;;;;;;;15.35;8.10;;;;;;;4.72;50.84;100294.30;1732747;82;25371;-66
2021/03/19 14:30:49;;;;;;;13.50;8.10;;;;;;;4.71;50.83;100306.08;1732920;82;25471;-66
2021/03/19 14:33:17;;;;;;;15.85;7.97;;;;;;;4.70;50.96;100299.66;1732804;82;25731;-66
2021/03/19 14:36:04;;;;;;;11.30;7.58;;;;;;;4.64;51.06;100300.20;1732763;82;25311;-67
2021/03/19 14:38:31;;;;;;;12.82;7.50;;;;;;;4.59;50.41;100296.19;1732741;82;25523;-69
2021/03/19 14:40:58;;;;;;;10.70;7.17;;;;;;;4.43;50.60;100303.42;1732676;82;25545;-69
2021/03/19 14:43:25;;;;;;;14.30;8.20;;;;;;;4.34;50.86;100302.33;1732909;82;25360;-68
2021/03/19 14:45:51;;;;;;;13.32;7.80;;;;;;;4.29;51.14;100307.14;1712710;82;25851;-68
2021/03/19 14:48:23;;;;;;;14.73;9.50;;;;;;;4.22;50.49;100301.25;1704226;84;25590;-68
2021/03/19 14:50:51;;;;;;;16.87;8.75;;;;;;;4.11;51.29;100301.78;1702978;84;25501;-68
2021/03/19 14:53:19;;;;;;;15.80;8.53;;;;;;;4.11;51.59;100308.47;1704106;84;25531;-68
2021/03/19 14:55:46;;;;;;;15.18;8.45;;;;;;;4.15;52.21;100304.73;1720591;82;25597;-68
2021/03/19 14:58:14;;;;;;;15.30;8.43;;;;;;;4.18;52.21;100306.88;1721861;82;26783;-68
2021/03/19 15:00:44;;;;;;;16.02;9.80;;;;;;;4.20;52.00;100303.39;1689131;82;25713;-69
2021/03/19 15:03:12;;;;;;;15.43;9.70;;;;;;;4.21;52.07;100311.16;1721187;82;25569;-68
2021/03/19 15:05:41;;;;;;;16.85;10.58;;;;;;;4.22;52.13;100310.63;1707164;84;25494;-68
2021/03/19 15:08:11;;;;;;;16.35;9.58;;;;;;;4.19;52.01;100303.11;1717737;82;25554;-69
2021/03/19 15:10:42;;;;;;;14.93;8.95;;;;;;;4.20;52.09;100306.07;1716687;82;25805;-68
2021/03/19 15:13:10;;;;;;;16.85;9.10;;;;;;;4.18;52.23;100305.54;1707262;84;25473;-68
2021/03/19 15:15:38;;;;;;;17.85;10.35;;;;;;;4.20;52.21;100308.75;1709309;82;25570;-68
2021/03/19 15:18:08;;;;;;;13.85;9.05;;;;;;;4.21;52.25;100307.69;1720059;82;25445;-66
2021/03/19 15:23:21;;;;;;;23.07;11.10;;;;;;;4.25;52.04;100310.89;1889123;76;34513;-68
2021/03/19 15:25:50;;;;;;;25.92;12.68;;;;;;;4.16;51.96;100311.70;1846753;75;25557;-68
2021/03/19 15:28:17;;;;;;;27.85;13.28;;;;;;;4.14;52.22;100311.97;1832430;75;25755;-67
2021/03/19 15:30:46;;;;;;;29.23;14.40;;;;;;;4.16;52.23;100318.39;1844033;76;25850;-66
2021/03/19 15:33:13;;;;;;;64.45;24.70;;;;;;;4.14;52.32;100305.27;1771526;81;25388;-68
2021/03/19 15:35:39;;;;;;;52.30;21.77;;;;;;;4.13;52.22;100310.89;1795130;79;25585;-68
2021/03/19 15:38:06;;;;;;;68.05;25.97;;;;;;;4.08;52.20;100313.81;1801653;79;25605;-68
2021/03/19 15:40:38;;;;;;;60.90;25.00;;;;;;;4.04;52.16;100313.28;1800585;79;25832;-68
2021/03/19 15:43:05;;;;;;;52.67;22.17;;;;;;;3.97;52.18;100320.23;1801135;79;25595;-68
2021/03/19 15:45:32;;;;;;;31.60;15.60;;;;;;;3.92;52.19;100321.55;1802174;79;25544;-68
2021/03/19 15:47:59;;;;;;;26.82;13.10;;;;;;;3.87;52.17;100326.89;1802120;79;25485;-68
2021/03/19 15:50:30;;;;;;;33.08;17.57;;;;;;;3.81;52.32;100321.23;1802114;79;25284;-67
2021/03/19 15:52:57;;;;;;;27.40;15.35;;;;;;;3.77;52.58;100325.52;1802190;79;25692;-67
2021/03/19 15:55:24;;;;;;;34.03;15.00;;;;;;;3.73;52.68;100336.73;1802110;79;25331;-68
2021/03/19 15:57:52;;;;;;;16.73;8.28;;;;;;;3.68;53.17;100335.92;1800321;79;25560;-68
2021/03/19 16:00:24;;;;;;;13.35;8.03;;;;;;;3.62;54.35;100340.42;1790586;79;25729;-67
2021/03/19 16:02:51;;;;;;;12.90;6.70;;;;;;;3.51;55.58;100331.56;1802143;79;25521;-67
2021/03/19 16:05:22;;;;;;;11.00;7.70;;;;;;;3.41;56.29;100342.75;1802140;79;25747;-68
2021/03/19 16:07:50;;;;;;;11.15;7.40;;;;;;;3.29;57.05;100346.42;1802154;79;25389;-67
2021/03/19 16:10:22;;;;;;;10.15;6.80;;;;;;;3.15;57.74;100354.61;1802088;79;25697;-69
2021/03/19 16:12:49;;;;;;;11.48;8.00;;;;;;;3.03;58.52;100355.34;1790022;79;25791;-67
2021/03/19 16:15:15;;;;;;;11.38;7.58;;;;;;;2.90;60.22;100356.06;1784777;79;25561;-66
2021/03/19 16:17:42;;;;;;;9.33;7.30;;;;;;;2.77;60.19;100364.50;1781049;79;25720;-67
2021/03/19 16:20:12;;;;;;;14.58;9.23;;;;;;;2.66;60.74;100364.95;1780868;80;25449;-67
2021/03/19 16:22:38;;;;;;;14.83;9.78;;;;;;;2.53;61.30;100362.70;1780995;80;25516;-66
2021/03/19 16:25:08;;;;;;;16.37;9.85;;;;;;;2.40;61.67;100366.57;1780916;80;25625;-67
2021/03/19 16:27:34;;;;;;;19.40;11.28;;;;;;;2.32;61.77;100371.06;1781120;80;25625;-68
2021/03/19 16:30:05;;;;;;;12.00;8.93;;;;;;;2.21;62.58;100375.47;1785900;79;25778;-67
2021/03/19 16:32:33;;;;;;;12.47;8.38;;;;;;;2.10;62.92;100371.89;1785886;79;25468;-67
2021/03/19 16:35:00;;;;;;;14.63;8.58;;;;;;;1.99;62.99;100383.50;1780289;80;25292;-67
2021/03/19 16:37:26;;;;;;;12.82;8.43;;;;;;;1.85;63.85;100383.87;1780309;80;25544;-67
2021/03/19 16:39:55;;;;;;;19.25;10.30;;;;;;;1.72;63.51;100382.10;1780432;80;25685;-68
2021/03/19 16:42:22;;;;;;;14.98;8.68;;;;;;;1.57;63.79;100388.87;1780438;80;32467;-67
2021/03/19 16:44:49;;;;;;;18.17;10.95;;;;;;;1.41;64.01;100393.16;1780330;80;25779;-68
2021/03/19 16:47:17;;;;;;;14.47;8.78;;;;;;;1.25;64.30;100390.81;1780348;80;25504;-67
2021/03/19 16:49:45;;;;;;;15.13;9.28;;;;;;;1.14;64.52;100400.23;1780379;79;25413;-67
2021/03/19 16:52:13;;;;;;;13.45;8.00;;;;;;;1.03;64.82;100398.74;1780406;80;25297;-68
2021/03/19 16:54:39;;;;;;;12.88;8.00;;;;;;;0.94;65.33;100406.87;1780321;80;25717;-68
2021/03/19 16:57:07;;;;;;;9.83;7.17;;;;;;;0.83;65.14;100406.41;1780251;80;25432;-67
2021/03/19 16:59:35;;;;;;;10.70;5.90;;;;;;;0.73;65.36;100410.53;1780295;80;25668;-66
2021/03/19 17:02:03;;;;;;;12.33;6.30;;;;;;;0.62;65.44;100420.70;1780309;80;25586;-67
2021/03/19 17:04:34;;;;;;;9.15;5.85;;;;;;;0.52;65.56;100419.20;1780525;80;25321;-67
2021/03/19 17:07:02;;;;;;;8.05;5.37;;;;;;;0.45;65.70;100424.66;1783903;78;26176;-69
2021/03/19 17:09:30;;;;;;;7.33;5.12;;;;;;;0.34;65.98;100428.17;1769509;79;25350;-68
2021/03/19 17:11:58;;;;;;;7.53;5.22;;;;;;;0.21;65.80;100429.80;1795976;79;25443;-68
2021/03/19 17:14:27;;;;;;;7.72;6.33;;;;;;;0.13;66.05;100430.97;1796208;79;25516;-68
2021/03/19 17:16:55;;;;;;;7.65;5.67;;;;;;;0.05;66.38;100438.81;1795441;79;25320;-67
2021/03/19 17:19:24;;;;;;;8.20;5.75;;;;;;;-0.02;66.49;100434.95;1796138;79;26020;-67
2021/03/19 17:21:54;;;;;;;6.03;5.17;;;;;;;-0.08;66.75;100442.53;1795609;79;25610;-66
2021/03/19 17:24:22;;;;;;;8.75;6.03;;;;;;;-0.12;66.83;100441.89;1777948;80;25552;-67
2021/03/19 17:26:52;;;;;;;8.48;6.00;;;;;;;-0.15;67.03;100441.85;1790341;80;25463;-68
2021/03/19 17:29:20;;;;;;;9.13;6.28;;;;;;;-0.18;67.24;100448.16;1777944;80;25255;-66
2021/03/19 17:31:48;;;;;;;8.68;5.70;;;;;;;-0.25;67.58;100438.45;1790284;80;27112;-67
2021/03/19 17:34:17;;;;;;;8.48;6.37;;;;;;;-0.28;67.57;100454.06;1790328;80;25456;-66
2021/03/19 17:36:45;;;;;;;8.63;6.05;;;;;;;-0.28;67.90;100452.73;1778014;80;25456;-66
2021/03/19 17:39:13;;;;;;;9.60;6.30;;;;;;;-0.33;67.66;100461.40;1761128;79;25388;-66
2021/03/19 17:41:40;;;;;;;9.73;6.60;;;;;;;-0.37;67.75;100460.26;1741193;82;25344;-66
2021/03/19 17:44:07;;;;;;;10.30;6.70;;;;;;;-0.38;67.99;100465.27;1741181;82;26691;-66
2021/03/19 17:46:34;;;;;;;10.85;6.92;;;;;;;-0.38;68.24;100463.94;1741161;82;25634;-67
2021/03/19 17:49:02;;;;;;;9.03;6.42;;;;;;;-0.38;68.46;100471.91;1741294;82;25282;-67
2021/03/19 17:51:30;;;;;;;11.10;6.90;;;;;;;-0.41;68.27;100465.73;1741143;82;25374;-67
2021/03/19 17:53:57;;;;;;;12.55;7.92;;;;;;;-0.44;68.64;100463.03;1746295;79;25341;-66
2021/03/19 17:56:31;;;;;;;12.37;7.92;;;;;;;-0.46;68.50;100466.94;1754584;81;26376;-66
2021/03/19 17:58:58;;;;;;;14.05;7.72;;;;;;;-0.46;68.68;100469.10;1771718;81;25313;-66
2021/03/19 18:01:29;;;;;;;10.50;7.00;;;;;;;-0.46;68.85;100467.77;1771751;81;25329;-66
2021/03/19 18:03:56;;;;;;;17.60;8.23;;;;;;;-0.45;69.04;100472.56;1771755;81;25419;-66
2021/03/19 18:06:24;;;;;;;10.48;7.05;;;;;;;-0.42;69.04;100480.08;1771776;81;25467;-66
2021/03/19 18:08:50;;;;;;;9.85;7.55;;;;;;;-0.42;69.05;100476.89;1771915;81;25776;-66
2021/03/19 18:11:19;;;;;;;12.15;7.67;;;;;;;-0.45;69.25;100477.87;1771739;81;25741;-66
2021/03/19 18:13:46;;;;;;;15.15;8.33;;;;;;;-0.48;69.04;100477.80;1771835;81;25484;-66
2021/03/19 18:16:16;;;;;;;10.48;7.05;;;;;;;-0.47;69.24;100482.09;1771825;81;25633;-66
2021/03/19 18:18:45;;;;;;;12.98;7.85;;;;;;;-0.47;69.24;100477.30;1771936;81;25348;-66
2021/03/19 18:21:31;;;;;;;11.07;7.40;;;;;;;-0.47;69.30;100487.41;1769515;79;25789;-66
2021/03/19 18:23:58;;;;;;;9.88;7.08;;;;;;;-0.48;69.44;100487.10;1776770;79;25491;-66
2021/03/19 18:26:27;;;;;;;16.55;9.60;;;;;;;-0.51;69.49;100489.41;1801799;79;25323;-66
2021/03/19 18:28:56;;;;;;;17.35;10.90;;;;;;;-0.52;69.58;100494.45;1801745;79;25708;-66
2021/03/19 18:31:24;;;;;;;12.20;7.92;;;;;;;-0.55;69.68;100491.73;1802017;79;25304;-65
2021/03/19 18:33:51;;;;;;;14.05;8.15;;;;;;;-0.57;69.84;100495.94;1801802;79;25761;-66
2021/03/19 18:36:22;;;;;;;14.20;9.23;;;;;;;-0.60;69.95;100497.72;1801788;79;25565;-65